sensor_id;sensor_type;location;lat;lon;timestamp;temperature;humidity
33093;DHT22;19456;46.104;12.908;2023-04-15T00:00:58;10.40;99.90
33093;DHT22;19456;46.104;12.908;2023-04-15T00:03:24;10.50;99.90
33093;DHT22;19456;46.104;12.908;2023-04-15T00:05:49;10.40;99.90
33093;DHT22;19456;46.104;12.908;2023-04-15T00:08:15;10.40;99.90
33093;DHT22;19456;46.104;12.908;2023-04-15T00:10:40;10.40;99.90
33093;DHT22;19456;46.104;12.908;2023-04-15T00:13:08;10.40;99.90
33093;DHT22;19456;46.104;12.908;2023-04-15T00:15:34;10.40;99.90
33093;DHT22;19456;46.104;12.908;2023-04-15T00:18:00;10.40;99.90
33093;DHT22;19456;46.104;12.908;2023-04-15T00:20:25;10.50;99.90
33093;DHT22;19456;46.104;12.908;2023-04-15T00:22:51;10.50;99.90
33093;DHT22;19456;46.104;12.908;2023-04-15T00:25:16;10.50;99.90
33093;DHT22;19456;46.104;12.908;2023-04-15T00:27:42;10.50;99.90
33093;DHT22;19456;46.104;12.908;2023-04-15T00:30:08;10.40;99.90
33093;DHT22;19456;46.104;12.908;2023-04-15T00:32:33;10.50;99.90
33093;DHT22;19456;46.104;12.908;2023-04-15T00:34:59;10.40;99.90
33093;DHT22;19456;46.104;12.908;2023-04-15T00:37:25;10.30;99.90
33093;DHT22;19456;46.104;12.908;2023-04-15T00:39:50;10.20;99.90
33093;DHT22;19456;46.104;12.908;2023-04-15T00:42:16;10.10;99.90
33093;DHT22;19456;46.104;12.908;2023-04-15T00:44:42;10.10;99.90
33093;DHT22;19456;46.104;12.908;2023-04-15T00:47:08;10.10;99.90
33093;DHT22;19456;46.104;12.908;2023-04-15T00:49:33;10.10;99.90
33093;DHT22;19456;46.104;12.908;2023-04-15T00:51:59;10.10;99.90
33093;DHT22;19456;46.104;12.908;2023-04-15T00:54:24;10.10;99.90
33093;DHT22;19456;46.104;12.908;2023-04-15T00:56:50;10.10;99.90
33093;DHT22;19456;46.104;12.908;2023-04-15T00:59:16;10.10;99.90
33093;DHT22;19456;46.104;12.908;2023-04-15T01:01:44;10.00;99.90
33093;DHT22;19456;46.104;12.908;2023-04-15T01:04:09;9.90;99.90
33093;DHT22;19456;46.104;12.908;2023-04-15T01:06:36;10.00;99.90
33093;DHT22;19456;46.104;12.908;2023-04-15T01:09:02;10.10;99.90
33093;DHT22;19456;46.104;12.908;2023-04-15T01:11:27;10.10;99.90
33093;DHT22;19456;46.104;12.908;2023-04-15T01:13:54;10.30;99.90
33093;DHT22;19456;46.104;12.908;2023-04-15T01:16:19;10.40;99.90
33093;DHT22;19456;46.104;12.908;2023-04-15T01:18:45;10.50;99.90
33093;DHT22;19456;46.104;12.908;2023-04-15T01:21:11;10.60;99.90
33093;DHT22;19456;46.104;12.908;2023-04-15T01:23:37;10.70;99.90
33093;DHT22;19456;46.104;12.908;2023-04-15T01:26:03;10.70;99.90
33093;DHT22;19456;46.104;12.908;2023-04-15T01:28:29;10.60;99.90
33093;DHT22;19456;46.104;12.908;2023-04-15T01:31:11;10.40;99.90
33093;DHT22;19456;46.104;12.908;2023-04-15T01:33:38;10.40;99.90
33093;DHT22;19456;46.104;12.908;2023-04-15T01:36:04;10.30;99.90
33093;DHT22;19456;46.104;12.908;2023-04-15T01:38:30;10.20;99.90
33093;DHT22;19456;46.104;12.908;2023-04-15T01:40:56;10.30;99.90
33093;DHT22;19456;46.104;12.908;2023-04-15T01:43:22;10.20;99.90
33093;DHT22;19456;46.104;12.908;2023-04-15T01:45:48;10.10;99.90
33093;DHT22;19456;46.104;12.908;2023-04-15T01:48:13;10.10;99.90
33093;DHT22;19456;46.104;12.908;2023-04-15T01:50:39;10.20;99.90
33093;DHT22;19456;46.104;12.908;2023-04-15T01:53:04;10.20;99.90
33093;DHT22;19456;46.104;12.908;2023-04-15T01:55:30;10.10;99.90
33093;DHT22;19456;46.104;12.908;2023-04-15T01:57:56;10.00;99.90
33093;DHT22;19456;46.104;12.908;2023-04-15T02:00:21;10.00;99.90
33093;DHT22;19456;46.104;12.908;2023-04-15T02:02:47;9.90;99.90
33093;DHT22;19456;46.104;12.908;2023-04-15T02:05:12;10.00;99.90
33093;DHT22;19456;46.104;12.908;2023-04-15T02:07:38;10.10;99.90
33093;DHT22;19456;46.104;12.908;2023-04-15T02:10:04;10.00;99.90
33093;DHT22;19456;46.104;12.908;2023-04-15T02:12:30;10.00;99.90
33093;DHT22;19456;46.104;12.908;2023-04-15T02:14:55;9.90;99.90
33093;DHT22;19456;46.104;12.908;2023-04-15T02:17:21;9.90;99.90
33093;DHT22;19456;46.104;12.908;2023-04-15T02:19:47;9.90;99.90
33093;DHT22;19456;46.104;12.908;2023-04-15T02:22:12;9.90;99.90
33093;DHT22;19456;46.104;12.908;2023-04-15T02:24:42;9.90;99.90
33093;DHT22;19456;46.104;12.908;2023-04-15T02:27:08;9.90;99.90
33093;DHT22;19456;46.104;12.908;2023-04-15T02:29:34;9.90;99.90
33093;DHT22;19456;46.104;12.908;2023-04-15T02:31:59;9.80;99.90
33093;DHT22;19456;46.104;12.908;2023-04-15T02:34:25;9.60;99.90
33093;DHT22;19456;46.104;12.908;2023-04-15T02:36:51;9.60;99.90
33093;DHT22;19456;46.104;12.908;2023-04-15T02:39:21;9.70;99.90
33093;DHT22;19456;46.104;12.908;2023-04-15T02:41:47;9.60;99.90
33093;DHT22;19456;46.104;12.908;2023-04-15T02:44:16;9.60;99.90
33093;DHT22;19456;46.104;12.908;2023-04-15T02:46:44;9.60;99.90
33093;DHT22;19456;46.104;12.908;2023-04-15T02:49:15;9.60;99.90
33093;DHT22;19456;46.104;12.908;2023-04-15T02:51:40;9.70;99.90
33093;DHT22;19456;46.104;12.908;2023-04-15T02:54:06;9.70;99.90
33093;DHT22;19456;46.104;12.908;2023-04-15T02:56:33;9.70;99.90
33093;DHT22;19456;46.104;12.908;2023-04-15T02:58:58;9.70;99.90
33093;DHT22;19456;46.104;12.908;2023-04-15T03:01:24;9.70;99.90
33093;DHT22;19456;46.104;12.908;2023-04-15T03:03:50;9.70;99.90
33093;DHT22;19456;46.104;12.908;2023-04-15T03:06:16;9.70;99.90
33093;DHT22;19456;46.104;12.908;2023-04-15T03:11:59;9.70;99.90
33093;DHT22;19456;46.104;12.908;2023-04-15T03:14:25;9.80;99.90
33093;DHT22;19456;46.104;12.908;2023-04-15T03:16:51;9.70;99.90
33093;DHT22;19456;46.104;12.908;2023-04-15T03:19:16;9.70;99.90
33093;DHT22;19456;46.104;12.908;2023-04-15T03:21:42;9.70;99.90
33093;DHT22;19456;46.104;12.908;2023-04-15T03:24:07;9.70;99.90
33093;DHT22;19456;46.104;12.908;2023-04-15T03:26:33;9.80;99.90
33093;DHT22;19456;46.104;12.908;2023-04-15T03:28:59;9.70;99.90
33093;DHT22;19456;46.104;12.908;2023-04-15T03:31:24;9.70;99.90
33093;DHT22;19456;46.104;12.908;2023-04-15T03:33:50;9.70;99.90
33093;DHT22;19456;46.104;12.908;2023-04-15T03:36:15;9.60;99.90
33093;DHT22;19456;46.104;12.908;2023-04-15T03:38:41;9.60;99.90
33093;DHT22;19456;46.104;12.908;2023-04-15T03:41:07;9.60;99.90
33093;DHT22;19456;46.104;12.908;2023-04-15T03:43:33;9.60;99.90
33093;DHT22;19456;46.104;12.908;2023-04-15T03:45:59;9.60;99.90
33093;DHT22;19456;46.104;12.908;2023-04-15T03:48:25;9.60;99.90
33093;DHT22;19456;46.104;12.908;2023-04-15T03:50:50;9.50;99.90
33093;DHT22;19456;46.104;12.908;2023-04-15T03:53:16;9.60;99.90
33093;DHT22;19456;46.104;12.908;2023-04-15T03:55:41;9.50;99.90
33093;DHT22;19456;46.104;12.908;2023-04-15T03:58:07;9.50;99.90
33093;DHT22;19456;46.104;12.908;2023-04-15T04:00:37;9.50;99.90
33093;DHT22;19456;46.104;12.908;2023-04-15T04:03:02;9.50;99.90
33093;DHT22;19456;46.104;12.908;2023-04-15T04:05:28;9.40;99.90
33093;DHT22;19456;46.104;12.908;2023-04-15T04:07:54;9.60;99.90
33093;DHT22;19456;46.104;12.908;2023-04-15T04:10:19;9.60;99.90
33093;DHT22;19456;46.104;12.908;2023-04-15T04:12:45;9.60;99.90
33093;DHT22;19456;46.104;12.908;2023-04-15T04:15:10;9.60;99.90
33093;DHT22;19456;46.104;12.908;2023-04-15T04:17:36;9.60;99.90
33093;DHT22;19456;46.104;12.908;2023-04-15T04:20:02;9.60;99.90
33093;DHT22;19456;46.104;12.908;2023-04-15T04:22:27;9.50;99.90
33093;DHT22;19456;46.104;12.908;2023-04-15T04:24:53;9.40;99.90
33093;DHT22;19456;46.104;12.908;2023-04-15T04:27:19;9.40;99.90
33093;DHT22;19456;46.104;12.908;2023-04-15T04:29:44;9.40;99.90
33093;DHT22;19456;46.104;12.908;2023-04-15T04:32:12;9.40;99.90
33093;DHT22;19456;46.104;12.908;2023-04-15T04:34:37;9.40;99.90
33093;DHT22;19456;46.104;12.908;2023-04-15T04:37:03;9.40;99.90
33093;DHT22;19456;46.104;12.908;2023-04-15T04:39:28;9.30;99.90
33093;DHT22;19456;46.104;12.908;2023-04-15T04:41:54;9.40;99.90
33093;DHT22;19456;46.104;12.908;2023-04-15T04:44:20;9.30;99.90
33093;DHT22;19456;46.104;12.908;2023-04-15T04:46:46;9.30;99.90
33093;DHT22;19456;46.104;12.908;2023-04-15T04:49:11;9.20;99.90
33093;DHT22;19456;46.104;12.908;2023-04-15T04:51:37;9.20;99.90
33093;DHT22;19456;46.104;12.908;2023-04-15T04:54:03;9.20;99.90
33093;DHT22;19456;46.104;12.908;2023-04-15T04:56:28;9.30;99.90
33093;DHT22;19456;46.104;12.908;2023-04-15T04:58:54;9.20;99.90
33093;DHT22;19456;46.104;12.908;2023-04-15T05:01:19;9.20;99.90
33093;DHT22;19456;46.104;12.908;2023-04-15T05:03:45;9.30;99.90
33093;DHT22;19456;46.104;12.908;2023-04-15T05:06:11;9.20;99.90
33093;DHT22;19456;46.104;12.908;2023-04-15T05:08:36;9.20;99.90
33093;DHT22;19456;46.104;12.908;2023-04-15T05:11:02;9.30;99.90
33093;DHT22;19456;46.104;12.908;2023-04-15T05:13:28;9.40;99.90
33093;DHT22;19456;46.104;12.908;2023-04-15T05:15:54;9.30;99.90
33093;DHT22;19456;46.104;12.908;2023-04-15T05:18:20;9.40;99.90
33093;DHT22;19456;46.104;12.908;2023-04-15T05:20:45;9.40;99.90
33093;DHT22;19456;46.104;12.908;2023-04-15T05:23:11;9.50;99.90
33093;DHT22;19456;46.104;12.908;2023-04-15T05:25:36;9.50;99.90
33093;DHT22;19456;46.104;12.908;2023-04-15T05:28:02;9.50;99.90
33093;DHT22;19456;46.104;12.908;2023-04-15T05:30:28;9.50;99.90
33093;DHT22;19456;46.104;12.908;2023-04-15T05:32:53;9.60;99.90
33093;DHT22;19456;46.104;12.908;2023-04-15T05:35:19;9.60;99.90
33093;DHT22;19456;46.104;12.908;2023-04-15T05:37:44;9.80;99.90
33093;DHT22;19456;46.104;12.908;2023-04-15T05:40:10;9.80;99.90
33093;DHT22;19456;46.104;12.908;2023-04-15T05:42:36;9.90;99.90
33093;DHT22;19456;46.104;12.908;2023-04-15T05:45:02;10.00;99.90
33093;DHT22;19456;46.104;12.908;2023-04-15T05:47:30;10.00;99.90
33093;DHT22;19456;46.104;12.908;2023-04-15T05:49:55;10.00;99.90
33093;DHT22;19456;46.104;12.908;2023-04-15T05:52:23;10.10;99.90
33093;DHT22;19456;46.104;12.908;2023-04-15T05:54:48;10.10;99.90
33093;DHT22;19456;46.104;12.908;2023-04-15T05:57:14;10.00;99.90
33093;DHT22;19456;46.104;12.908;2023-04-15T05:59:40;10.10;99.90
33093;DHT22;19456;46.104;12.908;2023-04-15T06:02:08;10.20;99.90
33093;DHT22;19456;46.104;12.908;2023-04-15T06:04:34;10.30;99.90
33093;DHT22;19456;46.104;12.908;2023-04-15T06:07:01;10.40;99.90
33093;DHT22;19456;46.104;12.908;2023-04-15T06:09:26;10.50;99.90
33093;DHT22;19456;46.104;12.908;2023-04-15T06:11:53;10.60;99.90
33093;DHT22;19456;46.104;12.908;2023-04-15T06:14:19;10.50;99.90
33093;DHT22;19456;46.104;12.908;2023-04-15T06:16:44;10.40;99.90
33093;DHT22;19456;46.104;12.908;2023-04-15T06:19:10;10.50;99.90
33093;DHT22;19456;46.104;12.908;2023-04-15T06:21:36;10.70;99.90
33093;DHT22;19456;46.104;12.908;2023-04-15T06:24:02;10.60;99.90
33093;DHT22;19456;46.104;12.908;2023-04-15T06:26:28;10.60;99.90
33093;DHT22;19456;46.104;12.908;2023-04-15T06:28:54;10.60;99.90
33093;DHT22;19456;46.104;12.908;2023-04-15T06:31:20;10.70;99.90
33093;DHT22;19456;46.104;12.908;2023-04-15T06:33:45;10.80;99.90
33093;DHT22;19456;46.104;12.908;2023-04-15T06:36:11;10.70;99.90
33093;DHT22;19456;46.104;12.908;2023-04-15T06:38:36;10.60;99.90
33093;DHT22;19456;46.104;12.908;2023-04-15T06:41:02;10.50;99.90
33093;DHT22;19456;46.104;12.908;2023-04-15T06:43:28;10.50;99.90
33093;DHT22;19456;46.104;12.908;2023-04-15T06:45:54;10.60;99.90
33093;DHT22;19456;46.104;12.908;2023-04-15T06:48:19;10.70;99.90
33093;DHT22;19456;46.104;12.908;2023-04-15T06:50:45;10.70;99.90
33093;DHT22;19456;46.104;12.908;2023-04-15T06:53:11;10.80;99.90
33093;DHT22;19456;46.104;12.908;2023-04-15T06:55:36;10.80;99.90
33093;DHT22;19456;46.104;12.908;2023-04-15T06:58:02;10.80;99.90
33093;DHT22;19456;46.104;12.908;2023-04-15T07:00:27;10.70;99.90
33093;DHT22;19456;46.104;12.908;2023-04-15T07:02:53;10.70;99.90
33093;DHT22;19456;46.104;12.908;2023-04-15T07:05:19;10.90;99.90
33093;DHT22;19456;46.104;12.908;2023-04-15T07:07:46;11.00;99.90
33093;DHT22;19456;46.104;12.908;2023-04-15T07:10:11;11.10;99.90
33093;DHT22;19456;46.104;12.908;2023-04-15T07:12:39;11.00;99.90
33093;DHT22;19456;46.104;12.908;2023-04-15T07:15:05;11.00;99.90
33093;DHT22;19456;46.104;12.908;2023-04-15T07:17:31;11.00;99.90
33093;DHT22;19456;46.104;12.908;2023-04-15T07:19:56;11.10;99.90
33093;DHT22;19456;46.104;12.908;2023-04-15T07:22:22;11.00;99.90
33093;DHT22;19456;46.104;12.908;2023-04-15T07:24:48;11.00;99.90
33093;DHT22;19456;46.104;12.908;2023-04-15T07:27:13;11.00;99.90
33093;DHT22;19456;46.104;12.908;2023-04-15T07:29:39;11.20;99.90
33093;DHT22;19456;46.104;12.908;2023-04-15T07:32:06;11.20;99.90
33093;DHT22;19456;46.104;12.908;2023-04-15T07:34:32;11.20;99.90
33093;DHT22;19456;46.104;12.908;2023-04-15T07:36:57;11.20;99.90
33093;DHT22;19456;46.104;12.908;2023-04-15T07:39:23;11.10;99.90
33093;DHT22;19456;46.104;12.908;2023-04-15T07:41:48;11.20;99.90
33093;DHT22;19456;46.104;12.908;2023-04-15T07:44:14;11.20;99.90
33093;DHT22;19456;46.104;12.908;2023-04-15T07:46:40;11.20;99.90
33093;DHT22;19456;46.104;12.908;2023-04-15T07:49:05;11.10;99.90
33093;DHT22;19456;46.104;12.908;2023-04-15T07:51:31;11.20;99.90
33093;DHT22;19456;46.104;12.908;2023-04-15T07:53:57;11.40;99.90
33093;DHT22;19456;46.104;12.908;2023-04-15T07:56:23;11.40;99.90
33093;DHT22;19456;46.104;12.908;2023-04-15T07:58:49;11.60;99.90
33093;DHT22;19456;46.104;12.908;2023-04-15T08:01:14;11.70;99.90
33093;DHT22;19456;46.104;12.908;2023-04-15T08:03:41;11.80;99.90
33093;DHT22;19456;46.104;12.908;2023-04-15T08:06:07;12.00;99.90
33093;DHT22;19456;46.104;12.908;2023-04-15T08:08:34;12.10;99.90
33093;DHT22;19456;46.104;12.908;2023-04-15T08:10:59;12.30;99.90
33093;DHT22;19456;46.104;12.908;2023-04-15T08:13:25;12.50;99.90
33093;DHT22;19456;46.104;12.908;2023-04-15T08:15:53;12.60;99.90
33093;DHT22;19456;46.104;12.908;2023-04-15T08:18:39;12.60;99.90
33093;DHT22;19456;46.104;12.908;2023-04-15T08:21:05;12.70;99.90
33093;DHT22;19456;46.104;12.908;2023-04-15T08:23:31;12.70;99.90
33093;DHT22;19456;46.104;12.908;2023-04-15T08:25:57;12.70;99.90
33093;DHT22;19456;46.104;12.908;2023-04-15T08:28:23;12.60;99.90
33093;DHT22;19456;46.104;12.908;2023-04-15T08:30:48;12.70;99.90
33093;DHT22;19456;46.104;12.908;2023-04-15T08:33:14;12.80;99.90
33093;DHT22;19456;46.104;12.908;2023-04-15T08:35:40;12.90;99.90
33093;DHT22;19456;46.104;12.908;2023-04-15T08:38:06;13.00;99.90
33093;DHT22;19456;46.104;12.908;2023-04-15T08:40:35;13.00;99.90
33093;DHT22;19456;46.104;12.908;2023-04-15T08:43:04;13.20;99.90
33093;DHT22;19456;46.104;12.908;2023-04-15T08:45:32;13.30;99.90
33093;DHT22;19456;46.104;12.908;2023-04-15T08:47:57;13.40;99.90
33093;DHT22;19456;46.104;12.908;2023-04-15T08:50:24;13.50;99.90
33093;DHT22;19456;46.104;12.908;2023-04-15T08:53:03;13.60;99.90
33093;DHT22;19456;46.104;12.908;2023-04-15T08:55:44;13.80;99.90
33093;DHT22;19456;46.104;12.908;2023-04-15T08:58:10;14.00;99.90
33093;DHT22;19456;46.104;12.908;2023-04-15T09:00:36;14.30;99.90
33093;DHT22;19456;46.104;12.908;2023-04-15T09:03:06;14.30;99.90
33093;DHT22;19456;46.104;12.908;2023-04-15T09:05:33;14.10;99.90
33093;DHT22;19456;46.104;12.908;2023-04-15T09:07:59;14.00;99.90
33093;DHT22;19456;46.104;12.908;2023-04-15T09:10:25;14.10;99.90
33093;DHT22;19456;46.104;12.908;2023-04-15T09:12:50;14.40;99.90
33093;DHT22;19456;46.104;12.908;2023-04-15T09:15:16;14.50;99.90
33093;DHT22;19456;46.104;12.908;2023-04-15T09:17:42;14.60;99.90
33093;DHT22;19456;46.104;12.908;2023-04-15T09:20:09;14.70;99.90
33093;DHT22;19456;46.104;12.908;2023-04-15T09:22:35;14.70;99.90
33093;DHT22;19456;46.104;12.908;2023-04-15T09:25:01;14.80;99.90
33093;DHT22;19456;46.104;12.908;2023-04-15T09:27:27;14.90;99.90
33093;DHT22;19456;46.104;12.908;2023-04-15T09:29:52;14.90;99.90
33093;DHT22;19456;46.104;12.908;2023-04-15T09:32:18;14.90;99.90
33093;DHT22;19456;46.104;12.908;2023-04-15T09:34:45;15.00;99.90
33093;DHT22;19456;46.104;12.908;2023-04-15T09:37:11;15.20;99.90
33093;DHT22;19456;46.104;12.908;2023-04-15T09:39:48;15.10;99.90
33093;DHT22;19456;46.104;12.908;2023-04-15T09:42:14;15.00;99.90
33093;DHT22;19456;46.104;12.908;2023-04-15T09:44:41;15.00;99.90
33093;DHT22;19456;46.104;12.908;2023-04-15T09:47:06;15.10;99.90
33093;DHT22;19456;46.104;12.908;2023-04-15T09:49:32;15.20;99.90
33093;DHT22;19456;46.104;12.908;2023-04-15T10:07:48;15.40;99.90
33093;DHT22;19456;46.104;12.908;2023-04-15T10:10:14;15.40;99.90
33093;DHT22;19456;46.104;12.908;2023-04-15T10:12:39;15.30;99.90
33093;DHT22;19456;46.104;12.908;2023-04-15T10:15:05;15.00;99.90
33093;DHT22;19456;46.104;12.908;2023-04-15T10:17:33;15.10;99.90
33093;DHT22;19456;46.104;12.908;2023-04-15T10:20:01;15.10;99.90
33093;DHT22;19456;46.104;12.908;2023-04-15T10:22:28;15.20;99.90
33093;DHT22;19456;46.104;12.908;2023-04-15T10:24:57;15.10;99.90
33093;DHT22;19456;46.104;12.908;2023-04-15T10:27:25;15.30;99.90
33093;DHT22;19456;46.104;12.908;2023-04-15T10:29:51;15.20;99.90
33093;DHT22;19456;46.104;12.908;2023-04-15T10:32:17;14.70;99.90
33093;DHT22;19456;46.104;12.908;2023-04-15T10:34:44;14.60;99.90
33093;DHT22;19456;46.104;12.908;2023-04-15T10:37:10;14.50;99.90
33093;DHT22;19456;46.104;12.908;2023-04-15T10:42:05;14.80;99.90
33093;DHT22;19456;46.104;12.908;2023-04-15T10:44:34;15.10;99.90
33093;DHT22;19456;46.104;12.908;2023-04-15T10:47:03;15.20;99.90
33093;DHT22;19456;46.104;12.908;2023-04-15T10:49:29;15.40;99.90
33093;DHT22;19456;46.104;12.908;2023-04-15T10:51:59;15.60;99.90
33093;DHT22;19456;46.104;12.908;2023-04-15T10:56:51;15.90;99.90
33093;DHT22;19456;46.104;12.908;2023-04-15T11:02:16;16.00;99.90
33093;DHT22;19456;46.104;12.908;2023-04-15T11:09:57;16.20;99.90
33093;DHT22;19456;46.104;12.908;2023-04-15T11:12:23;16.30;99.90
33093;DHT22;19456;46.104;12.908;2023-04-15T11:14:57;16.30;99.90
33093;DHT22;19456;46.104;12.908;2023-04-15T11:17:26;16.50;99.90
33093;DHT22;19456;46.104;12.908;2023-04-15T11:19:53;16.70;99.90
33093;DHT22;19456;46.104;12.908;2023-04-15T11:22:18;16.80;99.90
33093;DHT22;19456;46.104;12.908;2023-04-15T11:24:46;16.90;99.90
33093;DHT22;19456;46.104;12.908;2023-04-15T11:27:21;16.90;99.90
33093;DHT22;19456;46.104;12.908;2023-04-15T11:29:46;17.00;99.90
33093;DHT22;19456;46.104;12.908;2023-04-15T11:32:12;17.10;99.90
33093;DHT22;19456;46.104;12.908;2023-04-15T11:34:37;17.10;99.90
33093;DHT22;19456;46.104;12.908;2023-04-15T11:37:04;17.40;99.90
33093;DHT22;19456;46.104;12.908;2023-04-15T11:39:30;17.30;99.90
33093;DHT22;19456;46.104;12.908;2023-04-15T11:41:56;17.20;99.90
33093;DHT22;19456;46.104;12.908;2023-04-15T11:44:22;17.20;99.90
33093;DHT22;19456;46.104;12.908;2023-04-15T11:46:47;17.30;99.90
33093;DHT22;19456;46.104;12.908;2023-04-15T11:49:26;17.30;99.90
33093;DHT22;19456;46.104;12.908;2023-04-15T11:51:52;17.50;99.90
33093;DHT22;19456;46.104;12.908;2023-04-15T11:54:17;17.70;99.90
33093;DHT22;19456;46.104;12.908;2023-04-15T11:56:43;17.60;99.90
33093;DHT22;19456;46.104;12.908;2023-04-15T11:59:14;17.70;99.90
33093;DHT22;19456;46.104;12.908;2023-04-15T12:01:40;17.70;99.90
33093;DHT22;19456;46.104;12.908;2023-04-15T12:04:14;17.60;99.90
33093;DHT22;19456;46.104;12.908;2023-04-15T12:06:41;17.80;99.90
33093;DHT22;19456;46.104;12.908;2023-04-15T12:09:08;17.70;99.90
33093;DHT22;19456;46.104;12.908;2023-04-15T12:11:35;17.90;99.90
33093;DHT22;19456;46.104;12.908;2023-04-15T12:16:29;18.30;99.90
33093;DHT22;19456;46.104;12.908;2023-04-15T12:18:56;18.30;99.90
33093;DHT22;19456;46.104;12.908;2023-04-15T12:21:22;18.20;99.90
33093;DHT22;19456;46.104;12.908;2023-04-15T12:23:48;18.20;99.90
33093;DHT22;19456;46.104;12.908;2023-04-15T12:26:17;18.30;99.90
33093;DHT22;19456;46.104;12.908;2023-04-15T12:28:43;18.50;99.90
33093;DHT22;19456;46.104;12.908;2023-04-15T12:31:09;19.00;99.90
33093;DHT22;19456;46.104;12.908;2023-04-15T12:33:35;19.50;99.90
33093;DHT22;19456;46.104;12.908;2023-04-15T12:36:00;20.30;99.90
33093;DHT22;19456;46.104;12.908;2023-04-15T12:38:26;20.50;99.90
33093;DHT22;19456;46.104;12.908;2023-04-15T12:40:52;21.10;99.90
33093;DHT22;19456;46.104;12.908;2023-04-15T12:43:18;21.80;99.90
33093;DHT22;19456;46.104;12.908;2023-04-15T12:45:43;21.50;99.90
33093;DHT22;19456;46.104;12.908;2023-04-15T12:48:09;20.30;99.90
33093;DHT22;19456;46.104;12.908;2023-04-15T12:50:34;19.70;99.90
33093;DHT22;19456;46.104;12.908;2023-04-15T12:53:00;20.50;99.90
33093;DHT22;19456;46.104;12.908;2023-04-15T12:55:26;20.80;99.90
33093;DHT22;19456;46.104;12.908;2023-04-15T12:57:51;21.30;99.90
33093;DHT22;19456;46.104;12.908;2023-04-15T13:00:17;21.90;99.90
33093;DHT22;19456;46.104;12.908;2023-04-15T13:02:43;21.90;99.90
33093;DHT22;19456;46.104;12.908;2023-04-15T13:05:08;22.50;99.90
33093;DHT22;19456;46.104;12.908;2023-04-15T13:07:34;23.20;99.90
33093;DHT22;19456;46.104;12.908;2023-04-15T13:10:00;23.20;99.90
33093;DHT22;19456;46.104;12.908;2023-04-15T13:12:26;23.10;99.90
33093;DHT22;19456;46.104;12.908;2023-04-15T13:14:51;23.10;99.90
33093;DHT22;19456;46.104;12.908;2023-04-15T13:17:17;23.00;99.50
33093;DHT22;19456;46.104;12.908;2023-04-15T13:19:44;22.90;99.90
33093;DHT22;19456;46.104;12.908;2023-04-15T13:22:10;22.90;99.50
33093;DHT22;19456;46.104;12.908;2023-04-15T13:24:36;22.30;98.90
33093;DHT22;19456;46.104;12.908;2023-04-15T13:27:03;22.30;99.60
33093;DHT22;19456;46.104;12.908;2023-04-15T13:29:29;22.50;98.40
33093;DHT22;19456;46.104;12.908;2023-04-15T13:31:55;22.40;98.00
33093;DHT22;19456;46.104;12.908;2023-04-15T13:34:20;22.90;98.60
33093;DHT22;19456;46.104;12.908;2023-04-15T13:36:46;23.90;96.90
33093;DHT22;19456;46.104;12.908;2023-04-15T13:39:11;24.70;94.50
33093;DHT22;19456;46.104;12.908;2023-04-15T13:41:37;24.70;93.70
33093;DHT22;19456;46.104;12.908;2023-04-15T13:44:03;24.70;92.90
33093;DHT22;19456;46.104;12.908;2023-04-15T13:46:29;24.20;93.20
33093;DHT22;19456;46.104;12.908;2023-04-15T13:48:55;23.30;94.20
33093;DHT22;19456;46.104;12.908;2023-04-15T13:51:21;22.10;94.40
33093;DHT22;19456;46.104;12.908;2023-04-15T13:53:46;20.90;96.40
33093;DHT22;19456;46.104;12.908;2023-04-15T13:56:12;20.20;98.80
33093;DHT22;19456;46.104;12.908;2023-04-15T13:58:39;19.40;99.90
33093;DHT22;19456;46.104;12.908;2023-04-15T14:01:05;19.10;99.90
33093;DHT22;19456;46.104;12.908;2023-04-15T14:03:31;18.30;99.90
33093;DHT22;19456;46.104;12.908;2023-04-15T14:05:56;17.80;99.90
33093;DHT22;19456;46.104;12.908;2023-04-15T14:08:23;17.60;99.90
33093;DHT22;19456;46.104;12.908;2023-04-15T14:10:51;17.00;99.90
33093;DHT22;19456;46.104;12.908;2023-04-15T14:13:17;16.50;99.90
33093;DHT22;19456;46.104;12.908;2023-04-15T14:15:43;15.80;99.90
33093;DHT22;19456;46.104;12.908;2023-04-15T14:18:09;15.30;99.90
33093;DHT22;19456;46.104;12.908;2023-04-15T14:20:34;14.90;99.90
33093;DHT22;19456;46.104;12.908;2023-04-15T14:23:00;14.40;99.90
33093;DHT22;19456;46.104;12.908;2023-04-15T14:25:26;14.10;99.90
33093;DHT22;19456;46.104;12.908;2023-04-15T14:27:51;13.80;99.90
33093;DHT22;19456;46.104;12.908;2023-04-15T14:30:17;13.70;99.90
33093;DHT22;19456;46.104;12.908;2023-04-15T14:32:43;13.60;99.90
33093;DHT22;19456;46.104;12.908;2023-04-15T14:35:09;13.40;99.90
33093;DHT22;19456;46.104;12.908;2023-04-15T14:37:34;13.30;99.90
33093;DHT22;19456;46.104;12.908;2023-04-15T14:40:00;13.10;99.90
33093;DHT22;19456;46.104;12.908;2023-04-15T14:42:25;12.90;99.90
33093;DHT22;19456;46.104;12.908;2023-04-15T14:44:51;12.80;99.90
33093;DHT22;19456;46.104;12.908;2023-04-15T14:47:16;12.50;99.90
33093;DHT22;19456;46.104;12.908;2023-04-15T14:49:42;12.40;99.90
33093;DHT22;19456;46.104;12.908;2023-04-15T14:52:08;12.30;99.90
33093;DHT22;19456;46.104;12.908;2023-04-15T14:54:33;12.00;99.90
33093;DHT22;19456;46.104;12.908;2023-04-15T14:56:59;11.70;99.90
33093;DHT22;19456;46.104;12.908;2023-04-15T14:59:26;11.50;99.90
33093;DHT22;19456;46.104;12.908;2023-04-15T15:01:51;11.40;99.90
33093;DHT22;19456;46.104;12.908;2023-04-15T15:04:17;11.40;99.90
33093;DHT22;19456;46.104;12.908;2023-04-15T15:06:42;11.30;99.90
33093;DHT22;19456;46.104;12.908;2023-04-15T15:09:08;11.40;99.90
33093;DHT22;19456;46.104;12.908;2023-04-15T15:11:34;11.30;99.90
33093;DHT22;19456;46.104;12.908;2023-04-15T15:13:59;11.00;99.90
33093;DHT22;19456;46.104;12.908;2023-04-15T15:16:25;11.00;99.90
33093;DHT22;19456;46.104;12.908;2023-04-15T15:18:50;11.10;99.90
33093;DHT22;19456;46.104;12.908;2023-04-15T15:21:16;11.30;99.90
33093;DHT22;19456;46.104;12.908;2023-04-15T15:23:42;11.40;99.90
33093;DHT22;19456;46.104;12.908;2023-04-15T15:26:07;11.50;99.90
33093;DHT22;19456;46.104;12.908;2023-04-15T15:28:33;11.60;99.90
33093;DHT22;19456;46.104;12.908;2023-04-15T15:30:59;11.70;99.90
33093;DHT22;19456;46.104;12.908;2023-04-15T15:33:24;11.70;99.90
33093;DHT22;19456;46.104;12.908;2023-04-15T15:35:50;11.90;99.90
33093;DHT22;19456;46.104;12.908;2023-04-15T15:38:16;11.90;99.90
33093;DHT22;19456;46.104;12.908;2023-04-15T15:40:41;12.00;99.90
33093;DHT22;19456;46.104;12.908;2023-04-15T15:43:07;12.00;99.90
33093;DHT22;19456;46.104;12.908;2023-04-15T15:45:32;12.00;99.90
33093;DHT22;19456;46.104;12.908;2023-04-15T15:47:59;12.10;99.90